sensor_id;sensor_type;location;lat;lon;timestamp;temperature;humidity
871;DHT22;422;51.280;7.236;2024-01-27T00:00:16;3.00;1.00
871;DHT22;422;51.280;7.236;2024-01-27T00:02:44;2.90;99.90
871;DHT22;422;51.280;7.236;2024-01-27T00:05:12;2.80;99.90
871;DHT22;422;51.280;7.236;2024-01-27T00:07:39;2.70;99.90
871;DHT22;422;51.280;7.236;2024-01-27T00:10:09;2.70;99.90
871;DHT22;422;51.280;7.236;2024-01-27T00:12:36;2.60;99.90
871;DHT22;422;51.280;7.236;2024-01-27T00:15:06;2.60;1.00
871;DHT22;422;51.280;7.236;2024-01-27T00:17:34;2.60;1.00
871;DHT22;422;51.280;7.236;2024-01-27T00:20:01;2.70;99.90
871;DHT22;422;51.280;7.236;2024-01-27T00:22:29;2.70;74.80
871;DHT22;422;51.280;7.236;2024-01-27T00:24:56;2.70;92.30
871;DHT22;422;51.280;7.236;2024-01-27T00:27:25;2.70;69.60
871;DHT22;422;51.280;7.236;2024-01-27T00:29:52;2.70;1.00
871;DHT22;422;51.280;7.236;2024-01-27T00:32:19;2.60;1.00
871;DHT22;422;51.280;7.236;2024-01-27T00:34:47;2.60;1.00
871;DHT22;422;51.280;7.236;2024-01-27T00:37:14;2.50;1.00
871;DHT22;422;51.280;7.236;2024-01-27T00:39:42;2.50;1.00
871;DHT22;422;51.280;7.236;2024-01-27T00:42:11;2.50;1.00
871;DHT22;422;51.280;7.236;2024-01-27T00:44:40;2.50;1.00
871;DHT22;422;51.280;7.236;2024-01-27T00:47:07;2.40;1.00
871;DHT22;422;51.280;7.236;2024-01-27T00:49:34;2.40;1.00
871;DHT22;422;51.280;7.236;2024-01-27T00:52:02;2.40;1.00
871;DHT22;422;51.280;7.236;2024-01-27T00:54:29;2.30;1.00
871;DHT22;422;51.280;7.236;2024-01-27T00:56:58;2.30;1.00
871;DHT22;422;51.280;7.236;2024-01-27T00:59:25;2.30;99.90
871;DHT22;422;51.280;7.236;2024-01-27T01:01:54;2.30;99.90
871;DHT22;422;51.280;7.236;2024-01-27T01:04:22;2.30;99.90
871;DHT22;422;51.280;7.236;2024-01-27T01:06:49;2.20;1.00
871;DHT22;422;51.280;7.236;2024-01-27T01:09:16;2.10;1.00
871;DHT22;422;51.280;7.236;2024-01-27T01:11:44;2.00;1.00
871;DHT22;422;51.280;7.236;2024-01-27T01:14:12;1.90;1.00
871;DHT22;422;51.280;7.236;2024-01-27T01:16:41;1.80;1.00
871;DHT22;422;51.280;7.236;2024-01-27T01:19:09;1.80;1.00
871;DHT22;422;51.280;7.236;2024-01-27T01:21:37;1.60;1.00
871;DHT22;422;51.280;7.236;2024-01-27T01:24:04;1.60;71.60
871;DHT22;422;51.280;7.236;2024-01-27T01:26:32;1.50;99.90
871;DHT22;422;51.280;7.236;2024-01-27T01:28:59;1.40;1.00
871;DHT22;422;51.280;7.236;2024-01-27T01:31:26;1.30;99.90
871;DHT22;422;51.280;7.236;2024-01-27T01:33:54;1.30;99.90
871;DHT22;422;51.280;7.236;2024-01-27T01:36:23;1.30;1.00
871;DHT22;422;51.280;7.236;2024-01-27T01:38:50;1.20;99.90
871;DHT22;422;51.280;7.236;2024-01-27T01:41:17;1.20;1.00
871;DHT22;422;51.280;7.236;2024-01-27T01:43:45;1.20;1.00
871;DHT22;422;51.280;7.236;2024-01-27T01:46:12;1.20;1.00
871;DHT22;422;51.280;7.236;2024-01-27T01:48:42;1.10;1.00
871;DHT22;422;51.280;7.236;2024-01-27T01:51:10;1.10;1.00
871;DHT22;422;51.280;7.236;2024-01-27T01:53:39;1.10;99.90
871;DHT22;422;51.280;7.236;2024-01-27T01:56:07;1.10;1.00
871;DHT22;422;51.280;7.236;2024-01-27T01:58:34;1.00;99.90
871;DHT22;422;51.280;7.236;2024-01-27T02:01:02;1.00;1.00
871;DHT22;422;51.280;7.236;2024-01-27T02:03:29;0.90;1.00
871;DHT22;422;51.280;7.236;2024-01-27T02:05:56;0.80;1.00
871;DHT22;422;51.280;7.236;2024-01-27T02:08:24;0.90;99.90
871;DHT22;422;51.280;7.236;2024-01-27T02:10:52;0.90;94.50
871;DHT22;422;51.280;7.236;2024-01-27T02:13:21;0.90;1.00
871;DHT22;422;51.280;7.236;2024-01-27T02:15:50;0.80;1.00
871;DHT22;422;51.280;7.236;2024-01-27T02:18:17;0.80;1.00
871;DHT22;422;51.280;7.236;2024-01-27T02:20:45;0.80;1.00
871;DHT22;422;51.280;7.236;2024-01-27T02:23:13;0.80;1.00
871;DHT22;422;51.280;7.236;2024-01-27T02:25:41;0.80;1.00
871;DHT22;422;51.280;7.236;2024-01-27T02:28:09;0.70;1.00
871;DHT22;422;51.280;7.236;2024-01-27T02:30:36;0.60;99.90
871;DHT22;422;51.280;7.236;2024-01-27T02:33:04;0.70;19.90
871;DHT22;422;51.280;7.236;2024-01-27T02:35:31;0.70;99.90
871;DHT22;422;51.280;7.236;2024-01-27T02:37:59;0.70;99.90
871;DHT22;422;51.280;7.236;2024-01-27T02:40:26;0.70;1.00
871;DHT22;422;51.280;7.236;2024-01-27T02:42:55;0.70;99.90
871;DHT22;422;51.280;7.236;2024-01-27T02:45:23;0.80;99.90
871;DHT22;422;51.280;7.236;2024-01-27T02:47:51;0.80;99.90
871;DHT22;422;51.280;7.236;2024-01-27T02:50:20;0.90;1.00
871;DHT22;422;51.280;7.236;2024-01-27T02:52:49;0.80;99.90
871;DHT22;422;51.280;7.236;2024-01-27T02:55:18;0.80;99.90
871;DHT22;422;51.280;7.236;2024-01-27T02:57:46;0.70;1.00
871;DHT22;422;51.280;7.236;2024-01-27T03:00:18;0.70;99.90
871;DHT22;422;51.280;7.236;2024-01-27T03:02:46;0.60;12.40
871;DHT22;422;51.280;7.236;2024-01-27T03:05:15;0.60;99.90
871;DHT22;422;51.280;7.236;2024-01-27T03:07:45;0.70;1.00
871;DHT22;422;51.280;7.236;2024-01-27T03:10:13;0.60;99.90
871;DHT22;422;51.280;7.236;2024-01-27T03:12:42;0.60;1.00
871;DHT22;422;51.280;7.236;2024-01-27T03:15:10;0.70;99.90
871;DHT22;422;51.280;7.236;2024-01-27T03:17:40;0.60;1.00
871;DHT22;422;51.280;7.236;2024-01-27T03:20:11;0.50;99.90
871;DHT22;422;51.280;7.236;2024-01-27T03:22:39;0.40;99.90
871;DHT22;422;51.280;7.236;2024-01-27T03:25:10;0.40;1.00
871;DHT22;422;51.280;7.236;2024-01-27T03:27:38;0.30;1.00
871;DHT22;422;51.280;7.236;2024-01-27T03:30:07;0.20;1.00
871;DHT22;422;51.280;7.236;2024-01-27T03:32:36;0.20;99.90
871;DHT22;422;51.280;7.236;2024-01-27T03:35:06;0.20;1.00
871;DHT22;422;51.280;7.236;2024-01-27T03:37:35;0.20;1.00
871;DHT22;422;51.280;7.236;2024-01-27T03:40:03;0.10;1.00
871;DHT22;422;51.280;7.236;2024-01-27T03:42:32;0.10;1.00
871;DHT22;422;51.280;7.236;2024-01-27T03:44:59;0.00;99.90
871;DHT22;422;51.280;7.236;2024-01-27T03:47:26;0.00;99.90
871;DHT22;422;51.280;7.236;2024-01-27T03:49:53;0.00;1.00
871;DHT22;422;51.280;7.236;2024-01-27T03:52:22;-0.10;1.00
871;DHT22;422;51.280;7.236;2024-01-27T03:54:49;0.00;1.00
871;DHT22;422;51.280;7.236;2024-01-27T03:57:16;-0.10;1.00
871;DHT22;422;51.280;7.236;2024-01-27T03:59:44;-0.10;1.00
871;DHT22;422;51.280;7.236;2024-01-27T04:02:11;-0.10;1.00
871;DHT22;422;51.280;7.236;2024-01-27T04:04:38;-0.20;1.00
871;DHT22;422;51.280;7.236;2024-01-27T04:07:06;-0.20;1.00
871;DHT22;422;51.280;7.236;2024-01-27T04:09:34;-0.30;1.00
871;DHT22;422;51.280;7.236;2024-01-27T04:12:02;-0.30;1.00
871;DHT22;422;51.280;7.236;2024-01-27T04:14:29;-0.30;1.00
871;DHT22;422;51.280;7.236;2024-01-27T04:16:57;-0.30;5.90
871;DHT22;422;51.280;7.236;2024-01-27T04:19:24;-0.40;9.90
871;DHT22;422;51.280;7.236;2024-01-27T04:21:51;-0.30;53.10
871;DHT22;422;51.280;7.236;2024-01-27T04:24:19;-0.40;70.80
871;DHT22;422;51.280;7.236;2024-01-27T04:26:48;-0.40;99.90
871;DHT22;422;51.280;7.236;2024-01-27T04:29:15;-0.30;99.90
871;DHT22;422;51.280;7.236;2024-01-27T04:31:42;-0.30;99.90
871;DHT22;422;51.280;7.236;2024-01-27T04:34:10;-0.20;99.90
871;DHT22;422;51.280;7.236;2024-01-27T04:36:37;-0.20;99.90
871;DHT22;422;51.280;7.236;2024-01-27T04:39:04;-0.30;99.90
871;DHT22;422;51.280;7.236;2024-01-27T04:41:32;-0.20;99.90
871;DHT22;422;51.280;7.236;2024-01-27T04:44:00;-0.30;99.90
871;DHT22;422;51.280;7.236;2024-01-27T04:46:27;-0.30;99.90
871;DHT22;422;51.280;7.236;2024-01-27T04:48:55;-0.30;99.90
871;DHT22;422;51.280;7.236;2024-01-27T04:51:22;-0.40;99.90
871;DHT22;422;51.280;7.236;2024-01-27T04:53:50;-0.40;99.90
871;DHT22;422;51.280;7.236;2024-01-27T04:56:17;-0.40;99.90
871;DHT22;422;51.280;7.236;2024-01-27T04:58:44;-0.30;99.90
871;DHT22;422;51.280;7.236;2024-01-27T05:01:13;-0.30;99.90
871;DHT22;422;51.280;7.236;2024-01-27T05:03:40;-0.30;99.90
871;DHT22;422;51.280;7.236;2024-01-27T05:06:08;-0.30;99.90
871;DHT22;422;51.280;7.236;2024-01-27T05:08:35;-0.30;99.90
871;DHT22;422;51.280;7.236;2024-01-27T05:11:03;-0.40;99.90
871;DHT22;422;51.280;7.236;2024-01-27T05:13:30;-0.40;99.90
871;DHT22;422;51.280;7.236;2024-01-27T05:15:58;-0.40;99.90
871;DHT22;422;51.280;7.236;2024-01-27T05:18:26;-0.30;99.90
871;DHT22;422;51.280;7.236;2024-01-27T05:20:53;-0.20;99.90
871;DHT22;422;51.280;7.236;2024-01-27T05:23:21;-0.20;99.90
871;DHT22;422;51.280;7.236;2024-01-27T05:25:49;-0.10;99.90
871;DHT22;422;51.280;7.236;2024-01-27T05:28:16;-0.30;99.90
871;DHT22;422;51.280;7.236;2024-01-27T05:30:43;-0.30;99.90
871;DHT22;422;51.280;7.236;2024-01-27T05:33:10;-0.30;99.90
871;DHT22;422;51.280;7.236;2024-01-27T05:35:39;-0.20;99.90
871;DHT22;422;51.280;7.236;2024-01-27T05:38:06;-0.20;99.90
871;DHT22;422;51.280;7.236;2024-01-27T05:40:34;-0.20;99.90
871;DHT22;422;51.280;7.236;2024-01-27T05:43:01;-0.10;99.90
871;DHT22;422;51.280;7.236;2024-01-27T05:45:28;-0.10;99.90
871;DHT22;422;51.280;7.236;2024-01-27T05:47:57;-0.10;99.90
871;DHT22;422;51.280;7.236;2024-01-27T05:50:24;-0.10;99.90
871;DHT22;422;51.280;7.236;2024-01-27T05:52:52;-0.10;99.90
871;DHT22;422;51.280;7.236;2024-01-27T05:55:20;-0.10;99.90
871;DHT22;422;51.280;7.236;2024-01-27T05:57:47;-0.20;99.90
871;DHT22;422;51.280;7.236;2024-01-27T06:00:14;-0.20;99.90
871;DHT22;422;51.280;7.236;2024-01-27T06:02:42;-0.30;99.90
871;DHT22;422;51.280;7.236;2024-01-27T06:05:09;-0.40;99.90
871;DHT22;422;51.280;7.236;2024-01-27T06:07:37;-0.40;99.90
871;DHT22;422;51.280;7.236;2024-01-27T06:10:09;-0.50;69.20
871;DHT22;422;51.280;7.236;2024-01-27T06:12:37;-0.50;99.90
871;DHT22;422;51.280;7.236;2024-01-27T06:15:05;-0.40;99.90
871;DHT22;422;51.280;7.236;2024-01-27T06:17:34;-0.50;99.90
871;DHT22;422;51.280;7.236;2024-01-27T06:20:02;-0.40;99.90
871;DHT22;422;51.280;7.236;2024-01-27T06:22:30;-0.30;99.90
871;DHT22;422;51.280;7.236;2024-01-27T06:24:58;-0.20;99.90
871;DHT22;422;51.280;7.236;2024-01-27T06:27:27;-0.30;99.90
871;DHT22;422;51.280;7.236;2024-01-27T06:29:54;-0.40;99.90
871;DHT22;422;51.280;7.236;2024-01-27T06:32:22;-0.40;99.90
871;DHT22;422;51.280;7.236;2024-01-27T06:34:49;-0.50;59.00
871;DHT22;422;51.280;7.236;2024-01-27T06:37:16;-0.50;1.00
871;DHT22;422;51.280;7.236;2024-01-27T06:39:43;-0.50;1.00
871;DHT22;422;51.280;7.236;2024-01-27T06:42:10;-0.50;1.00
871;DHT22;422;51.280;7.236;2024-01-27T06:44:39;-0.50;1.00
871;DHT22;422;51.280;7.236;2024-01-27T06:47:06;-0.50;1.00
871;DHT22;422;51.280;7.236;2024-01-27T06:49:34;-0.50;1.00
871;DHT22;422;51.280;7.236;2024-01-27T06:52:01;-0.50;1.00
871;DHT22;422;51.280;7.236;2024-01-27T06:54:28;-0.50;1.00
871;DHT22;422;51.280;7.236;2024-01-27T06:56:55;-0.60;1.00
871;DHT22;422;51.280;7.236;2024-01-27T06:59:22;-0.70;1.00
871;DHT22;422;51.280;7.236;2024-01-27T07:01:51;-0.70;1.00
871;DHT22;422;51.280;7.236;2024-01-27T07:04:18;-0.70;1.00
871;DHT22;422;51.280;7.236;2024-01-27T07:06:45;-0.70;1.00
871;DHT22;422;51.280;7.236;2024-01-27T07:09:13;-0.70;1.00
871;DHT22;422;51.280;7.236;2024-01-27T07:11:40;-0.70;1.00
871;DHT22;422;51.280;7.236;2024-01-27T07:14:07;-0.60;1.00
871;DHT22;422;51.280;7.236;2024-01-27T07:16:34;-0.50;1.00
871;DHT22;422;51.280;7.236;2024-01-27T07:19:03;-0.50;14.50
871;DHT22;422;51.280;7.236;2024-01-27T07:21:30;-0.60;8.10
871;DHT22;422;51.280;7.236;2024-01-27T07:23:58;-0.70;1.00
871;DHT22;422;51.280;7.236;2024-01-27T07:26:25;-0.70;1.00
871;DHT22;422;51.280;7.236;2024-01-27T07:28:52;-0.60;58.40
871;DHT22;422;51.280;7.236;2024-01-27T07:31:19;-0.50;99.90
871;DHT22;422;51.280;7.236;2024-01-27T07:33:47;-0.40;99.90
871;DHT22;422;51.280;7.236;2024-01-27T07:36:16;-0.30;99.90
871;DHT22;422;51.280;7.236;2024-01-27T07:38:43;-0.40;99.90
871;DHT22;422;51.280;7.236;2024-01-27T07:41:10;-0.30;99.90
871;DHT22;422;51.280;7.236;2024-01-27T07:43:37;-0.30;99.90
871;DHT22;422;51.280;7.236;2024-01-27T07:46:05;-0.20;99.90
871;DHT22;422;51.280;7.236;2024-01-27T07:48:32;-0.20;99.90
871;DHT22;422;51.280;7.236;2024-01-27T07:51:00;-0.20;99.90
871;DHT22;422;51.280;7.236;2024-01-27T07:53:29;-0.20;99.90
871;DHT22;422;51.280;7.236;2024-01-27T07:55:56;-0.20;99.90
871;DHT22;422;51.280;7.236;2024-01-27T07:58:24;-0.20;99.90
871;DHT22;422;51.280;7.236;2024-01-27T08:00:51;-0.10;99.90
871;DHT22;422;51.280;7.236;2024-01-27T08:03:18;-0.10;99.90
871;DHT22;422;51.280;7.236;2024-01-27T08:05:46;-0.10;99.90
871;DHT22;422;51.280;7.236;2024-01-27T08:08:14;-0.10;99.90
871;DHT22;422;51.280;7.236;2024-01-27T08:10:43;0.00;99.90
871;DHT22;422;51.280;7.236;2024-01-27T08:13:10;0.10;99.90
871;DHT22;422;51.280;7.236;2024-01-27T08:15:37;0.30;99.90
871;DHT22;422;51.280;7.236;2024-01-27T08:18:05;0.40;99.90
871;DHT22;422;51.280;7.236;2024-01-27T08:20:32;0.60;99.90
871;DHT22;422;51.280;7.236;2024-01-27T08:23:00;0.70;99.90
871;DHT22;422;51.280;7.236;2024-01-27T08:25:27;0.80;99.90
871;DHT22;422;51.280;7.236;2024-01-27T08:27:56;1.00;99.90
871;DHT22;422;51.280;7.236;2024-01-27T08:30:23;1.10;99.90
871;DHT22;422;51.280;7.236;2024-01-27T08:32:50;1.30;99.90
871;DHT22;422;51.280;7.236;2024-01-27T08:35:18;1.30;99.90
871;DHT22;422;51.280;7.236;2024-01-27T08:37:45;1.60;99.90
871;DHT22;422;51.280;7.236;2024-01-27T08:40:13;1.70;99.90
871;DHT22;422;51.280;7.236;2024-01-27T08:42:41;1.90;99.90
871;DHT22;422;51.280;7.236;2024-01-27T08:45:10;2.10;99.90
871;DHT22;422;51.280;7.236;2024-01-27T08:47:37;2.40;99.90
871;DHT22;422;51.280;7.236;2024-01-27T08:50:06;2.50;99.90
871;DHT22;422;51.280;7.236;2024-01-27T08:52:33;2.70;99.90
871;DHT22;422;51.280;7.236;2024-01-27T08:55:01;2.90;99.90
871;DHT22;422;51.280;7.236;2024-01-27T08:57:29;3.10;2.00
871;DHT22;422;51.280;7.236;2024-01-27T08:59:56;3.10;1.00
871;DHT22;422;51.280;7.236;2024-01-27T09:02:25;3.20;86.00
871;DHT22;422;51.280;7.236;2024-01-27T09:04:52;3.30;99.90
871;DHT22;422;51.280;7.236;2024-01-27T09:07:20;3.40;20.90
871;DHT22;422;51.280;7.236;2024-01-27T09:09:47;3.60;1.00
871;DHT22;422;51.280;7.236;2024-01-27T09:12:15;3.50;1.00
871;DHT22;422;51.280;7.236;2024-01-27T09:14:43;3.80;1.00
871;DHT22;422;51.280;7.236;2024-01-27T09:17:11;4.10;99.90
871;DHT22;422;51.280;7.236;2024-01-27T09:19:40;4.30;57.40
871;DHT22;422;51.280;7.236;2024-01-27T09:22:07;4.50;1.00
871;DHT22;422;51.280;7.236;2024-01-27T09:24:35;4.60;1.00
871;DHT22;422;51.280;7.236;2024-01-27T09:27:03;4.80;99.90
871;DHT22;422;51.280;7.236;2024-01-27T09:29:31;4.80;99.90
871;DHT22;422;51.280;7.236;2024-01-27T09:31:59;5.00;99.90
871;DHT22;422;51.280;7.236;2024-01-27T09:34:28;5.20;99.90
871;DHT22;422;51.280;7.236;2024-01-27T09:36:57;5.40;99.90
871;DHT22;422;51.280;7.236;2024-01-27T09:39:25;5.50;13.60
871;DHT22;422;51.280;7.236;2024-01-27T09:41:54;5.50;1.00
871;DHT22;422;51.280;7.236;2024-01-27T09:44:22;5.60;1.00
871;DHT22;422;51.280;7.236;2024-01-27T09:46:51;5.70;1.00
871;DHT22;422;51.280;7.236;2024-01-27T09:49:19;5.70;1.00
871;DHT22;422;51.280;7.236;2024-01-27T09:51:47;5.80;1.00
871;DHT22;422;51.280;7.236;2024-01-27T09:54:16;5.90;1.00
871;DHT22;422;51.280;7.236;2024-01-27T09:56:46;6.00;1.00
871;DHT22;422;51.280;7.236;2024-01-27T09:59:16;6.20;1.00
871;DHT22;422;51.280;7.236;2024-01-27T10:01:45;6.20;1.00
871;DHT22;422;51.280;7.236;2024-01-27T10:04:13;6.40;1.00
871;DHT22;422;51.280;7.236;2024-01-27T10:06:41;6.50;1.00
871;DHT22;422;51.280;7.236;2024-01-27T10:09:09;6.70;1.00
871;DHT22;422;51.280;7.236;2024-01-27T10:11:39;6.80;1.00
871;DHT22;422;51.280;7.236;2024-01-27T10:14:09;6.90;1.00
871;DHT22;422;51.280;7.236;2024-01-27T10:16:41;6.90;1.00
871;DHT22;422;51.280;7.236;2024-01-27T10:19:14;6.90;1.00
871;DHT22;422;51.280;7.236;2024-01-27T10:21:42;7.10;1.00
871;DHT22;422;51.280;7.236;2024-01-27T10:24:10;7.30;1.00
871;DHT22;422;51.280;7.236;2024-01-27T10:26:39;7.40;1.00
871;DHT22;422;51.280;7.236;2024-01-27T10:29:08;7.50;1.00
871;DHT22;422;51.280;7.236;2024-01-27T10:31:37;7.70;1.00
871;DHT22;422;51.280;7.236;2024-01-27T10:34:04;8.00;1.00
871;DHT22;422;51.280;7.236;2024-01-27T10:36:41;8.10;1.00
871;DHT22;422;51.280;7.236;2024-01-27T10:39:17;8.30;1.00
871;DHT22;422;51.280;7.236;2024-01-27T10:41:47;8.50;1.00
871;DHT22;422;51.280;7.236;2024-01-27T10:44:17;8.60;1.00
871;DHT22;422;51.280;7.236;2024-01-27T10:46:45;8.40;1.00
871;DHT22;422;51.280;7.236;2024-01-27T10:49:15;8.50;1.00
871;DHT22;422;51.280;7.236;2024-01-27T10:51:45;8.60;1.00
871;DHT22;422;51.280;7.236;2024-01-27T10:54:18;8.70;1.00
871;DHT22;422;51.280;7.236;2024-01-27T10:56:51;8.50;99.90
871;DHT22;422;51.280;7.236;2024-01-27T10:59:19;8.50;99.90
871;DHT22;422;51.280;7.236;2024-01-27T11:01:49;8.80;1.00
871;DHT22;422;51.280;7.236;2024-01-27T11:04:20;8.90;99.90
871;DHT22;422;51.280;7.236;2024-01-27T11:06:48;9.20;99.90
871;DHT22;422;51.280;7.236;2024-01-27T11:09:17;9.30;99.90
871;DHT22;422;51.280;7.236;2024-01-27T11:11:46;9.40;99.90
871;DHT22;422;51.280;7.236;2024-01-27T11:14:16;9.70;99.90
871;DHT22;422;51.280;7.236;2024-01-27T11:16:44;9.70;99.90
871;DHT22;422;51.280;7.236;2024-01-27T11:19:14;9.80;99.90
871;DHT22;422;51.280;7.236;2024-01-27T11:21:41;9.90;99.90
871;DHT22;422;51.280;7.236;2024-01-27T11:24:14;10.00;99.90
871;DHT22;422;51.280;7.236;2024-01-27T11:26:42;10.10;99.90
871;DHT22;422;51.280;7.236;2024-01-27T11:29:09;9.90;99.90
871;DHT22;422;51.280;7.236;2024-01-27T11:31:48;9.80;99.90
871;DHT22;422;51.280;7.236;2024-01-27T11:34:18;9.60;99.90
871;DHT22;422;51.280;7.236;2024-01-27T11:36:46;9.70;99.90
871;DHT22;422;51.280;7.236;2024-01-27T11:39:24;10.00;99.90
871;DHT22;422;51.280;7.236;2024-01-27T11:41:52;10.20;99.90
871;DHT22;422;51.280;7.236;2024-01-27T11:44:20;10.20;99.90
871;DHT22;422;51.280;7.236;2024-01-27T11:46:49;10.20;99.90
871;DHT22;422;51.280;7.236;2024-01-27T11:49:19;10.30;99.90
871;DHT22;422;51.280;7.236;2024-01-27T11:51:48;10.40;99.90
871;DHT22;422;51.280;7.236;2024-01-27T11:54:16;10.50;99.90
871;DHT22;422;51.280;7.236;2024-01-27T11:56:44;10.70;99.90
871;DHT22;422;51.280;7.236;2024-01-27T11:59:12;10.70;99.90
871;DHT22;422;51.280;7.236;2024-01-27T12:01:39;10.80;99.90
871;DHT22;422;51.280;7.236;2024-01-27T12:04:09;10.50;99.90
871;DHT22;422;51.280;7.236;2024-01-27T12:06:39;10.30;99.90
871;DHT22;422;51.280;7.236;2024-01-27T12:09:07;10.40;99.90
871;DHT22;422;51.280;7.236;2024-01-27T12:11:38;10.30;99.90
871;DHT22;422;51.280;7.236;2024-01-27T12:14:07;10.40;99.90
871;DHT22;422;51.280;7.236;2024-01-27T12:16:35;10.70;99.90
871;DHT22;422;51.280;7.236;2024-01-27T12:19:03;10.80;99.90
871;DHT22;422;51.280;7.236;2024-01-27T12:21:32;10.80;99.90
871;DHT22;422;51.280;7.236;2024-01-27T12:24:00;10.90;99.90
871;DHT22;422;51.280;7.236;2024-01-27T12:26:29;10.90;99.90
871;DHT22;422;51.280;7.236;2024-01-27T12:28:57;10.80;99.90
871;DHT22;422;51.280;7.236;2024-01-27T12:31:25;10.90;99.90
871;DHT22;422;51.280;7.236;2024-01-27T12:33:55;10.50;99.90
871;DHT22;422;51.280;7.236;2024-01-27T12:36:25;10.70;99.90
871;DHT22;422;51.280;7.236;2024-01-27T12:38:59;10.30;99.90
871;DHT22;422;51.280;7.236;2024-01-27T12:41:28;10.30;99.90
871;DHT22;422;51.280;7.236;2024-01-27T12:43:56;10.10;99.90
871;DHT22;422;51.280;7.236;2024-01-27T12:46:24;10.30;99.90
871;DHT22;422;51.280;7.236;2024-01-27T12:48:51;10.30;99.90
871;DHT22;422;51.280;7.236;2024-01-27T12:51:19;10.00;99.90
871;DHT22;422;51.280;7.236;2024-01-27T12:53:47;9.90;99.90
871;DHT22;422;51.280;7.236;2024-01-27T12:56:17;10.00;99.90
871;DHT22;422;51.280;7.236;2024-01-27T12:58:44;9.90;99.90
871;DHT22;422;51.280;7.236;2024-01-27T13:01:12;9.80;99.90
871;DHT22;422;51.280;7.236;2024-01-27T13:03:40;9.50;99.90
871;DHT22;422;51.280;7.236;2024-01-27T13:06:07;9.70;99.90
871;DHT22;422;51.280;7.236;2024-01-27T13:08:35;9.90;99.90
871;DHT22;422;51.280;7.236;2024-01-27T13:11:03;9.90;99.90
871;DHT22;422;51.280;7.236;2024-01-27T13:13:32;9.80;99.90
871;DHT22;422;51.280;7.236;2024-01-27T13:15:59;9.60;99.90
871;DHT22;422;51.280;7.236;2024-01-27T13:18:27;9.50;99.90
871;DHT22;422;51.280;7.236;2024-01-27T13:20:55;9.60;99.90
871;DHT22;422;51.280;7.236;2024-01-27T13:23:23;9.70;99.90
871;DHT22;422;51.280;7.236;2024-01-27T13:25:51;9.60;99.90
871;DHT22;422;51.280;7.236;2024-01-27T13:28:21;9.50;99.90
871;DHT22;422;51.280;7.236;2024-01-27T13:30:50;9.40;99.90
871;DHT22;422;51.280;7.236;2024-01-27T13:33:18;9.20;99.90
871;DHT22;422;51.280;7.236;2024-01-27T13:35:45;8.90;99.90
871;DHT22;422;51.280;7.236;2024-01-27T13:38:13;8.70;99.90
871;DHT22;422;51.280;7.236;2024-01-27T13:40:41;8.60;99.90
871;DHT22;422;51.280;7.236;2024-01-27T13:43:09;8.50;99.90
871;DHT22;422;51.280;7.236;2024-01-27T13:45:37;8.40;99.90
871;DHT22;422;51.280;7.236;2024-01-27T13:48:07;8.20;99.90
871;DHT22;422;51.280;7.236;2024-01-27T13:50:35;8.20;99.90
871;DHT22;422;51.280;7.236;2024-01-27T13:53:03;8.20;99.90
871;DHT22;422;51.280;7.236;2024-01-27T13:55:32;8.10;99.90
871;DHT22;422;51.280;7.236;2024-01-27T13:57:59;8.00;99.90
871;DHT22;422;51.280;7.236;2024-01-27T14:00:27;7.90;99.90
871;DHT22;422;51.280;7.236;2024-01-27T14:02:59;7.90;99.90
871;DHT22;422;51.280;7.236;2024-01-27T14:05:28;7.80;99.90
871;DHT22;422;51.280;7.236;2024-01-27T14:07:56;7.80;99.90
871;DHT22;422;51.280;7.236;2024-01-27T14:10:24;7.80;99.90
871;DHT22;422;51.280;7.236;2024-01-27T14:12:51;7.70;99.90
871;DHT22;422;51.280;7.236;2024-01-27T14:15:19;7.60;99.90
871;DHT22;422;51.280;7.236;2024-01-27T14:17:47;7.60;99.90
871;DHT22;422;51.280;7.236;2024-01-27T14:20:15;7.50;99.90
871;DHT22;422;51.280;7.236;2024-01-27T14:22:44;7.50;99.90
871;DHT22;422;51.280;7.236;2024-01-27T14:25:11;7.40;99.90
871;DHT22;422;51.280;7.236;2024-01-27T14:27:41;7.40;99.90
871;DHT22;422;51.280;7.236;2024-01-27T14:30:10;7.40;99.90
871;DHT22;422;51.280;7.236;2024-01-27T14:32:39;7.40;99.90
871;DHT22;422;51.280;7.236;2024-01-27T14:35:07;7.30;99.90
871;DHT22;422;51.280;7.236;2024-01-27T14:37:34;7.20;99.90
871;DHT22;422;51.280;7.236;2024-01-27T14:40:06;7.20;99.90
871;DHT22;422;51.280;7.236;2024-01-27T14:42:34;7.20;99.90
871;DHT22;422;51.280;7.236;2024-01-27T14:45:02;7.20;99.90
871;DHT22;422;51.280;7.236;2024-01-27T14:47:30;7.10;99.90
871;DHT22;422;51.280;7.236;2024-01-27T14:49:58;7.20;99.90
871;DHT22;422;51.280;7.236;2024-01-27T14:52:25;7.10;99.90
871;DHT22;422;51.280;7.236;2024-01-27T14:54:54;7.10;99.90
871;DHT22;422;51.280;7.236;2024-01-27T14:57:28;7.00;99.90
871;DHT22;422;51.280;7.236;2024-01-27T14:59:57;7.00;99.90
871;DHT22;422;51.280;7.236;2024-01-27T15:02:25;7.00;99.90
871;DHT22;422;51.280;7.236;2024-01-27T15:04:55;7.00;99.90
871;DHT22;422;51.280;7.236;2024-01-27T15:07:25;7.00;99.90
871;DHT22;422;51.280;7.236;2024-01-27T15:09:55;7.00;99.90
871;DHT22;422;51.280;7.236;2024-01-27T15:12:23;7.00;99.90
871;DHT22;422;51.280;7.236;2024-01-27T15:14:53;6.90;99.90
871;DHT22;422;51.280;7.236;2024-01-27T15:17:21;6.80;99.90
871;DHT22;422;51.280;7.236;2024-01-27T15:19:49;6.80;99.90
871;DHT22;422;51.280;7.236;2024-01-27T15:22:18;6.70;99.90
871;DHT22;422;51.280;7.236;2024-01-27T15:24:46;6.70;99.90
871;DHT22;422;51.280;7.236;2024-01-27T15:27:14;6.70;99.90
871;DHT22;422;51.280;7.236;2024-01-27T15:29:42;6.60;99.90
871;DHT22;422;51.280;7.236;2024-01-27T15:32:12;6.60;99.90
871;DHT22;422;51.280;7.236;2024-01-27T15:34:43;6.50;99.90
871;DHT22;422;51.280;7.236;2024-01-27T15:37:11;6.40;99.90
871;DHT22;422;51.280;7.236;2024-01-27T15:39:38;6.40;99.90
871;DHT22;422;51.280;7.236;2024-01-27T15:42:06;6.40;99.90
871;DHT22;422;51.280;7.236;2024-01-27T15:44:33;6.30;99.90
871;DHT22;422;51.280;7.236;2024-01-27T15:47:01;6.30;99.90
871;DHT22;422;51.280;7.236;2024-01-27T15:49:30;6.20;99.90
871;DHT22;422;51.280;7.236;2024-01-27T15:51:57;6.10;99.90
871;DHT22;422;51.280;7.236;2024-01-27T15:54:25;6.00;99.90
871;DHT22;422;51.280;7.236;2024-01-27T15:56:52;6.00;99.90
871;DHT22;422;51.280;7.236;2024-01-27T15:59:20;5.90;99.90
871;DHT22;422;51.280;7.236;2024-01-27T16:01:48;5.80;99.90
871;DHT22;422;51.280;7.236;2024-01-27T16:04:16;5.80;99.90
871;DHT22;422;51.280;7.236;2024-01-27T16:06:45;5.70;99.90
871;DHT22;422;51.280;7.236;2024-01-27T16:09:12;5.70;99.90
871;DHT22;422;51.280;7.236;2024-01-27T16:11:40;5.60;99.90
871;DHT22;422;51.280;7.236;2024-01-27T16:14:07;5.50;99.90
871;DHT22;422;51.280;7.236;2024-01-27T16:16:35;5.60;99.90
871;DHT22;422;51.280;7.236;2024-01-27T16:19:03;5.50;99.90
871;DHT22;422;51.280;7.236;2024-01-27T16:21:31;5.40;99.90
871;DHT22;422;51.280;7.236;2024-01-27T16:24:00;5.30;99.90
871;DHT22;422;51.280;7.236;2024-01-27T16:26:28;5.10;99.90
871;DHT22;422;51.280;7.236;2024-01-27T16:28:56;4.90;99.90
871;DHT22;422;51.280;7.236;2024-01-27T16:31:23;4.70;99.90
871;DHT22;422;51.280;7.236;2024-01-27T16:33:51;4.70;99.90
871;DHT22;422;51.280;7.236;2024-01-27T16:36:18;4.70;1.00
871;DHT22;422;51.280;7.236;2024-01-27T16:38:46;4.60;1.00
871;DHT22;422;51.280;7.236;2024-01-27T16:41:15;4.50;1.00
871;DHT22;422;51.280;7.236;2024-01-27T16:43:43;4.40;1.00
871;DHT22;422;51.280;7.236;2024-01-27T16:46:10;4.20;1.00
871;DHT22;422;51.280;7.236;2024-01-27T16:48:39;4.10;1.00
871;DHT22;422;51.280;7.236;2024-01-27T16:51:07;4.00;1.00
871;DHT22;422;51.280;7.236;2024-01-27T16:53:35;4.00;1.00
871;DHT22;422;51.280;7.236;2024-01-27T16:56:03;4.00;1.00